Mt Hood
Timberline Lodge
Latest observation 08/31 18:00 PDT
| Time (PDT) | Temp °F 5800' | RH % 5800' | Min mph 5920' | Spd mph 5920' | Gust mph 5920' | Dir ° 5920' | Pcp1 in 5800' | PcpSum in 5800' | 24Sno in 5800' | SnoHt in 5800' |
|---|---|---|---|---|---|---|---|---|---|---|
| 08/31 18:00 | 65 | 38 | 1 | 6 | 14 | 259 | 0.00 | 0.29 | 0.2 | 2.8 |
| 08/31 17:00 | 70 | 26 | 0 | 4 | 14 | 164 | 0.00 | 0.29 | 0.2 | 1.5 |
| 08/31 16:00 | 69 | 23 | 0 | 5 | 10 | 134 | 0.00 | 0.29 | -0.1 | 5.6 |
| 08/31 15:00 | 69 | 23 | 2 | 6 | 12 | 130 | 0.00 | 0.29 | 0.1 | 4.8 |
| 08/31 14:00 | 67 | 22 | 1 | 6 | 11 | 113 | 0.00 | 0.29 | 0.0 | 4.2 |
| 08/31 13:00 | 65 | 20 | 2 | 7 | 16 | 111 | 0.00 | 0.29 | 0.0 | 7.2 |
| 08/31 12:00 | 63 | 22 | 4 | 8 | 13 | 112 | 0.00 | 0.29 | 0.0 | 7.5 |
| 08/31 11:00 | 63 | 24 | 2 | 8 | 14 | 106 | 0.00 | 0.29 | 0.1 | 8.2 |
| 08/31 10:00 | 60 | 23 | 3 | 8 | 13 | 95 | 0.00 | 0.29 | 0.2 | 8.0 |
| 08/31 09:00 | 59 | 25 | 1 | 8 | 16 | 89 | 0.00 | 0.29 | 0.1 | 8.2 |
| 08/31 08:00 | 58 | 26 | 1 | 6 | 13 | 82 | 0.00 | 0.29 | 0.0 | 8.0 |
| 08/31 07:00 | 54 | 36 | 3 | 8 | 12 | 88 | 0.00 | 0.29 | 0.1 | 6.8 |
| 08/31 06:00 | 54 | 38 | 1 | 7 | 11 | 87 | 0.00 | 0.29 | 0.1 | 6.2 |
| 08/31 05:00 | 54 | 38 | 4 | 7 | 11 | 88 | 0.00 | 0.29 | 0.1 | 7.0 |
| 08/31 04:00 | 54 | 40 | 2 | 6 | 10 | 85 | 0.00 | 0.29 | 0.0 | 8.2 |
| 08/31 03:00 | 53 | 42 | 4 | 7 | 11 | 87 | 0.00 | 0.29 | 0.1 | 6.1 |
| 08/31 02:00 | 53 | 46 | 2 | 5 | 10 | 92 | 0.00 | 0.29 | 0.1 | 8.0 |
| 08/31 01:00 | 53 | 49 | 0 | 3 | 6 | 86 | 0.00 | 0.29 | 0.1 | 6.7 |
| 08/31 00:00 | 56 | 42 | 0 | 0 | 4 | 90 | 0.00 | 0.29 | 0.0 | 6.3 |
| 08/30 23:00 | 55 | 47 | 0 | 3 | 5 | 89 | 0.00 | 0.29 | 0.1 | 6.1 |
| 08/30 22:00 | 54 | 48 | 0 | 1 | 4 | 90 | 0.00 | 0.29 | 0.1 | 4.9 |
| 08/30 21:00 | 53 | 48 | 0 | 0 | 1 | 121 | 0.00 | 0.29 | 0.1 | 4.7 |
| 08/30 20:00 | 52 | 54 | 0 | 0 | 1 | 183 | 0.00 | 0.29 | 0.1 | 6.0 |
| 08/30 19:00 | 57 | 47 | 0 | 0 | 6 | 229 | 0.00 | 0.29 | 0.0 | 3.6 |
| 08/30 18:00 | 59 | 46 | 0 | 4 | 9 | 265 | 0.00 | 0.29 | 0.1 | 4.3 |
| 08/30 17:00 | 59 | 43 | 2 | 5 | 9 | 270 | 0.00 | 0.29 | -0.1 | 4.2 |
| 08/30 16:00 | 58 | 47 | 2 | 7 | 12 | 271 | 0.00 | 0.29 | 0.0 | 5.0 |
| 08/30 15:00 | 57 | 49 | 3 | 7 | 12 | 272 | 0.00 | 0.29 | 0.0 | 5.6 |
| 08/30 14:00 | 55 | 49 | 2 | 6 | 12 | 274 | 0.00 | 0.29 | 0.0 | 6.0 |
| 08/30 13:00 | 54 | 52 | 3 | 6 | 13 | 270 | 0.00 | 0.29 | 0.0 | 7.7 |
| 08/30 12:00 | 53 | 54 | 0 | 4 | 11 | 235 | 0.00 | 0.29 | 0.1 | 6.8 |
| 08/30 11:00 | 52 | 55 | 0 | 2 | 6 | 214 | 0.00 | 0.29 | 0.0 | 6.7 |
| 08/30 10:00 | 50 | 49 | 0 | 1 | 5 | 145 | 0.00 | 0.29 | 0.1 | 7.3 |
| 08/30 09:00 | 48 | 38 | 0 | 0 | 1 | 44 | 0.00 | 0.29 | 0.0 | 258.4 |
| 08/30 08:00 | 48 | 34 | 0 | 0 | 1 | 26 | 0.00 | 0.29 | -0.0 | 259.0 |
| 08/30 07:00 | 42 | 40 | 0 | 0 | 3 | 33 | 0.00 | 0.29 | 0.1 | -8.3 |
| 08/30 06:00 | 41 | 44 | 0 | 2 | 8 | 351 | 0.00 | 0.29 | 0.1 | -20.6 |
| 08/30 05:00 | 40 | 48 | 0 | 5 | 15 | 346 | 0.00 | 0.29 | 0.1 | -21.6 |
| 08/30 04:00 | 41 | 48 | 5 | 9 | 15 | 335 | 0.00 | 0.29 | 0.1 | 7.6 |
| 08/30 03:00 | 39 | 56 | 5 | 10 | 16 | 315 | 0.00 | 0.29 | 0.1 | -22.4 |
| 08/30 02:00 | 38 | 70 | 8 | 13 | 19 | 305 | 0.00 | 0.29 | 0.1 | -22.6 |
| 08/30 01:00 | 38 | 78 | 7 | 12 | 18 | 307 | 0.00 | 0.29 | 0.1 | -25.5 |
| 08/30 00:00 | 39 | 73 | 7 | 14 | 23 | 310 | 0.00 | 0.29 | 0.1 | -23.8 |
| 08/29 23:00 | 37 | 86 | 6 | 12 | 21 | 307 | 0.00 | 0.29 | 0.1 | 4.7 |
| 08/29 22:00 | 39 | 89 | 5 | 11 | 18 | 298 | 0.00 | 0.29 | 0.1 | 2.3 |
| 08/29 21:00 | 40 | 90 | 7 | 13 | 20 | 300 | 0.00 | 0.29 | 0.1 | 5.5 |
| 08/29 20:00 | 40 | 91 | 7 | 14 | 22 | 299 | 0.00 | 0.29 | 0.2 | -22.5 |
| 08/29 19:00 | 40 | 93 | 6 | 14 | 24 | 294 | 0.00 | 0.29 | 0.0 | 3.5 |
| 08/29 18:00 | 41 | 91 | 7 | 15 | 24 | 293 | 0.01 | 0.29 | 0.2 | -21.6 |
| 08/29 17:00 | 41 | 91 | 9 | 15 | 22 | 292 | 0.00 | 0.28 | 0.2 | 2.2 |
| 08/29 16:00 | 41 | 92 | 6 | 14 | 25 | 296 | 0.00 | 0.28 | 0.2 | -9.8 |
| 08/29 15:00 | 41 | 92 | 8 | 14 | 22 | 297 | 0.00 | 0.28 | 0.2 | 2.5 |
| 08/29 14:00 | 39 | 95 | 6 | 13 | 25 | 294 | 0.00 | 0.28 | 3.0 | -7.9 |
| 08/29 13:00 | 40 | 95 | 8 | 14 | 22 | 296 | 0.00 | 0.28 | 2.8 | 5.6 |
| 08/29 12:00 | 37 | 96 | 10 | 16 | 24 | 295 | 0.00 | 0.28 | 0.4 | 4.4 |
| 08/29 11:00 | 37 | 96 | 8 | 16 | 25 | 292 | 0.01 | 0.28 | 0.9 | 6.2 |
| 08/29 10:00 | 37 | 95 | 10 | 17 | 27 | 293 | 0.00 | 0.27 | 2.8 | 7.6 |
| 08/29 09:00 | 37 | 96 | 7 | 15 | 27 | 290 | 0.03 | 0.27 | 0.9 | 6.8 |
| 08/29 08:00 | 37 | 96 | 6 | 11 | 20 | 282 | 0.04 | 0.24 | 1.1 | 7.4 |
| 08/29 07:00 | 37 | 95 | 5 | 10 | 19 | 287 | 0.00 | 0.20 | 0.2 | 6.1 |
| 08/29 06:00 | 37 | 91 | 6 | 12 | 22 | 287 | 0.00 | 0.20 | 0.2 | 7.7 |
| 08/29 05:00 | 37 | 91 | 7 | 14 | 22 | 291 | 0.00 | 0.20 | 0.2 | 5.8 |
| 08/29 04:00 | 39 | 90 | 7 | 14 | 22 | 292 | 0.00 | 0.20 | 0.1 | 4.2 |
| 08/29 03:00 | 41 | 87 | 7 | 15 | 23 | 297 | 0.00 | 0.20 | 0.2 | 7.7 |
| 08/29 02:00 | 41 | 88 | 8 | 16 | 27 | 301 | 0.00 | 0.20 | 0.2 | 7.9 |
| 08/29 01:00 | 43 | 89 | 9 | 15 | 24 | 301 | 0.00 | 0.20 | 0.0 | 8.0 |
| 08/29 00:00 | 43 | 88 | 9 | 15 | 22 | 299 | 0.00 | 0.20 | 0.1 | 6.7 |
| 08/28 23:00 | 44 | 84 | 10 | 16 | 22 | 301 | 0.00 | 0.20 | 0.0 | 8.6 |
| 08/28 22:00 | 45 | 81 | 12 | 17 | 25 | 305 | 0.00 | 0.20 | 0.1 | 7.2 |
| 08/28 21:00 | 45 | 82 | 9 | 16 | 24 | 299 | 0.00 | 0.20 | 0.1 | -22.9 |
| 08/28 20:00 | 47 | 67 | 5 | 12 | 22 | 299 | 0.00 | 0.20 | 0.1 | 6.3 |
| 08/28 19:00 | 52 | 55 | 5 | 10 | 16 | 293 | 0.00 | 0.20 | 0.1 | 0.7 |
| 08/28 18:00 | 55 | 55 | 5 | 9 | 17 | 279 | 0.00 | 0.20 | 0.0 | 4.0 |
| 08/28 17:00 | 56 | 54 | 5 | 10 | 15 | 273 | 0.00 | 0.20 | 0.0 | 2.6 |
| 08/28 16:00 | 57 | 49 | 4 | 10 | 17 | 271 | 0.00 | 0.20 | 0.0 | 3.6 |
| 08/28 15:00 | 58 | 54 | 7 | 11 | 19 | 278 | 0.00 | 0.20 | 0.2 | 4.6 |
| 08/28 14:00 | 58 | 54 | 4 | 10 | 16 | 277 | 0.00 | 0.20 | 0.0 | 4.5 |
| 08/28 13:00 | 57 | 55 | 3 | 8 | 15 | 280 | 0.00 | 0.20 | 0.0 | 4.5 |
| 08/28 12:00 | 56 | 57 | 3 | 8 | 13 | 285 | 0.00 | 0.20 | 0.0 | 3.8 |
| 08/28 11:00 | 55 | 57 | 2 | 6 | 11 | 276 | 0.00 | 0.20 | 0.0 | 4.5 |
| 08/28 10:00 | 54 | 49 | 2 | 6 | 10 | 293 | 0.00 | 0.20 | 0.1 | 5.1 |
| 08/28 09:00 | 52 | 39 | 0 | 4 | 8 | 309 | 0.00 | 0.20 | 0.1 | -17.5 |
| 08/28 08:00 | 52 | 38 | 0 | 1 | 5 | 360 | 0.00 | 0.20 | 0.1 | 8.0 |
| 08/28 07:00 | 47 | 44 | 0 | 0 | 2 | 353 | 0.00 | 0.20 | 0.1 | 8.4 |
| 08/28 06:00 | 48 | 40 | 0 | 1 | 4 | 56 | 0.00 | 0.20 | 0.1 | -17.8 |
| 08/28 05:00 | 48 | 37 | 0 | 2 | 5 | 346 | 0.00 | 0.20 | 0.1 | -5.3 |
| 08/28 04:00 | 49 | 38 | 1 | 6 | 11 | 315 | 0.00 | 0.20 | 0.1 | 6.5 |
| 08/28 03:00 | 50 | 35 | 4 | 7 | 10 | 305 | 0.00 | 0.20 | 0.0 | 6.3 |
| 08/28 02:00 | 49 | 39 | 4 | 6 | 10 | 299 | 0.00 | 0.20 | 0.1 | -18.3 |
| 08/28 01:00 | 50 | 37 | 4 | 7 | 11 | 304 | 0.00 | 0.20 | 0.1 | 7.7 |
| 08/28 00:00 | 49 | 39 | 4 | 7 | 14 | 301 | 0.00 | 0.20 | 0.1 | -18.6 |
| 08/27 23:00 | 51 | 35 | 6 | 11 | 19 | 299 | 0.00 | 0.20 | 0.1 | 9.1 |
| 08/27 22:00 | 52 | 35 | 5 | 11 | 19 | 308 | 0.00 | 0.20 | 0.1 | 8.5 |
| 08/27 21:00 | 50 | 48 | 5 | 13 | 22 | 304 | 0.00 | 0.20 | 0.1 | -19.7 |
| 08/27 20:00 | 50 | 47 | 7 | 14 | 24 | 306 | 0.00 | 0.20 | 0.1 | 6.9 |
| 08/27 19:00 | 52 | 57 | 8 | 13 | 20 | 300 | 0.00 | 0.20 | 0.0 | 6.5 |
| 08/27 18:00 | 55 | 57 | 6 | 13 | 22 | 300 | 0.00 | 0.20 | 0.0 | 3.3 |
| 08/27 17:00 | 56 | 55 | 7 | 13 | 21 | 286 | 0.00 | 0.20 | 0.0 | 2.6 |
| 08/27 16:00 | 58 | 53 | 7 | 12 | 20 | 282 | 0.00 | 0.20 | 0.0 | 4.7 |
| 08/27 15:00 | 57 | 51 | 6 | 12 | 20 | 277 | 0.00 | 0.20 | 0.2 | 5.9 |
| 08/27 14:00 | 57 | 51 | 6 | 11 | 20 | 278 | 0.00 | 0.20 | 0.1 | 5.8 |
| 08/27 13:00 | 55 | 59 | 6 | 11 | 18 | 282 | 0.00 | 0.20 | 0.2 | 7.1 |
| 08/27 12:00 | 54 | 58 | 6 | 11 | 19 | 286 | 0.00 | 0.20 | 0.0 | 3.7 |
| 08/27 11:00 | 51 | 72 | 4 | 10 | 19 | 284 | 0.00 | 0.20 | 0.1 | 6.4 |
| 08/27 10:00 | 49 | 78 | 5 | 11 | 20 | 291 | 0.00 | 0.20 | 0.3 | 4.0 |
| 08/27 09:00 | 50 | 76 | 2 | 9 | 20 | 291 | 0.00 | 0.20 | 0.3 | 6.9 |
| 08/27 08:00 | 49 | 80 | 4 | 9 | 16 | 301 | 0.00 | 0.20 | 0.1 | 4.8 |
| 08/27 07:00 | 48 | 89 | 3 | 8 | 16 | 290 | 0.00 | 0.20 | 0.1 | 4.8 |
| 08/27 06:00 | 49 | 89 | 2 | 8 | 18 | 289 | 0.00 | 0.20 | 0.1 | 5.4 |
| 08/27 05:00 | 50 | 90 | 3 | 9 | 16 | 303 | 0.00 | 0.20 | 0.1 | 4.7 |
| 08/27 04:00 | 50 | 89 | 6 | 10 | 14 | 303 | 0.00 | 0.20 | 0.1 | 3.9 |
| 08/27 03:00 | 50 | 87 | 4 | 9 | 15 | 297 | 0.00 | 0.20 | 0.1 | 3.7 |
| 08/27 02:00 | 51 | 84 | 5 | 10 | 18 | 303 | 0.00 | 0.20 | 0.1 | 5.7 |
| 08/27 01:00 | 51 | 83 | 4 | 9 | 14 | 306 | 0.00 | 0.20 | 0.1 | 8.9 |
| 08/27 00:00 | 52 | 82 | 7 | 12 | 21 | 304 | 0.00 | 0.20 | 0.1 | 3.6 |
| 08/26 23:00 | 53 | 76 | 9 | 16 | 26 | 299 | 0.00 | 0.20 | 0.1 | 7.8 |
| 08/26 22:00 | 53 | 76 | 7 | 16 | 27 | 295 | 0.00 | 0.20 | 0.0 | 7.6 |
| 08/26 21:00 | 54 | 70 | 8 | 15 | 28 | 301 | 0.00 | 0.20 | 0.1 | 5.0 |
| 08/26 20:00 | 56 | 61 | 5 | 13 | 22 | 299 | 0.00 | 0.20 | 0.1 | 5.8 |
| 08/26 19:00 | 59 | 50 | 5 | 11 | 23 | 289 | 0.00 | 0.20 | 0.1 | 5.1 |
| 08/26 18:00 | 62 | 42 | 1 | 8 | 17 | 295 | 0.00 | 0.20 | 0.0 | 2.8 |
| 08/26 17:00 | 61 | 44 | 4 | 9 | 17 | 287 | 0.00 | 0.20 | 0.1 | 4.2 |
| 08/26 16:00 | 65 | 45 | 1 | 8 | 15 | 274 | 0.00 | 0.20 | 0.0 | 3.1 |
| 08/26 15:00 | 66 | 39 | 0 | 7 | 16 | 260 | 0.00 | 0.20 | 0.0 | 6.4 |
| 08/26 14:00 | 65 | 35 | 0 | 6 | 15 | 250 | 0.00 | 0.20 | 0.1 | 5.5 |
| 08/26 13:00 | 63 | 38 | 0 | 5 | 15 | 258 | 0.00 | 0.20 | 0.2 | 4.9 |
| 08/26 12:00 | 64 | 32 | 3 | 8 | 15 | 258 | 0.00 | 0.20 | 25.0 | 5.8 |
| 08/26 11:00 | 64 | 27 | 0 | 5 | 13 | 292 | 0.00 | 0.20 | 0.3 | 6.5 |
| 08/26 10:00 | 61 | 25 | 3 | 6 | 12 | 287 | 0.00 | 0.20 | 0.0 | 7.8 |
| 08/26 09:00 | 60 | 26 | 0 | 5 | 9 | 292 | 0.00 | 0.20 | 0.2 | 6.8 |
| 08/26 08:00 | 60 | 24 | 0 | 5 | 10 | 310 | 0.00 | 0.20 | 0.0 | 6.3 |
| 08/26 07:00 | 59 | 20 | 2 | 5 | 9 | 314 | 0.00 | 0.20 | 0.3 | 8.0 |
| 08/26 06:00 | 59 | 18 | 1 | 4 | 8 | 318 | 0.00 | 0.20 | 0.3 | 8.0 |
| 08/26 05:00 | 60 | 16 | 0 | 4 | 7 | 317 | 0.00 | 0.20 | 0.4 | 7.7 |
| 08/26 04:00 | 62 | 16 | 2 | 4 | 8 | 328 | 0.00 | 0.20 | 0.2 | 8.5 |
| 08/26 03:00 | 61 | 18 | 2 | 5 | 9 | 325 | 0.00 | 0.20 | 0.2 | 8.5 |
| 08/26 02:00 | 62 | 22 | 1 | 5 | 12 | 321 | 0.00 | 0.20 | 0.0 | 8.1 |
| 08/26 01:00 | 60 | 23 | 3 | 7 | 10 | 314 | 0.00 | 0.20 | 0.1 | 8.5 |
| 08/26 00:00 | 59 | 20 | 5 | 8 | 12 | 310 | 0.00 | 0.20 | 0.1 | 8.2 |
| 08/25 23:00 | 60 | 18 | 4 | 9 | 17 | 305 | 0.00 | 0.20 | 0.1 | 8.2 |
| 08/25 22:00 | 60 | 19 | 6 | 11 | 18 | 306 | 0.00 | 0.20 | 0.0 | 8.1 |
| 08/25 21:00 | 60 | 28 | 4 | 10 | 18 | 307 | 0.00 | 0.20 | 0.1 | 7.1 |
| 08/25 20:00 | 62 | 35 | 5 | 10 | 17 | 302 | 0.00 | 0.20 | 0.2 | 6.7 |
| 08/25 19:00 | 65 | 41 | 4 | 9 | 15 | 302 | 0.00 | 0.20 | 0.1 | 6.1 |
| 08/25 18:00 | 67 | 47 | 3 | 7 | 14 | 283 | 0.00 | 0.20 | 0.1 | 1.6 |
| 08/25 17:00 | 69 | 39 | 4 | 7 | 12 | 288 | 0.00 | 0.20 | 0.0 | 0.6 |
| 08/25 16:00 | 69 | 43 | 0 | 7 | 13 | 277 | 0.00 | 0.20 | -0.0 | 2.5 |
| 08/25 15:00 | 71 | 36 | 0 | 6 | 17 | 272 | 0.05 | 0.20 | -0.0 | 2.2 |
| 08/25 14:00 | 72 | 32 | 0 | 5 | 15 | 238 | 0.00 | 0.15 | 0.0 | 5.7 |
| 08/25 13:00 | 70 | 32 | 0 | 6 | 13 | 211 | 0.02 | 0.15 | 0.2 | 6.2 |
| 08/25 12:00 | 70 | 32 | 0 | 3 | 8 | 144 | 0.01 | 0.13 | 0.0 | 2.2 |
| 08/25 11:00 | 70 | 30 | 0 | 4 | 9 | 126 | 0.04 | 0.12 | 0.0 | 3.4 |
| 08/25 10:00 | 67 | 34 | 1 | 5 | 13 | 119 | 0.00 | 0.08 | 0.2 | 3.9 |
| 08/25 09:00 | 67 | 32 | 3 | 8 | 13 | 103 | 0.00 | 0.08 | 0.1 | 7.2 |
| 08/25 08:00 | 66 | 31 | 1 | 9 | 14 | 91 | 0.01 | 0.08 | 0.1 | 7.0 |
| 08/25 07:00 | 63 | 32 | 4 | 9 | 14 | 90 | 0.03 | 0.07 | 0.0 | 7.3 |
| 08/25 06:00 | 63 | 28 | 2 | 5 | 11 | 92 | 0.01 | 0.04 | 0.0 | 7.8 |
| 08/25 05:00 | 63 | 27 | 1 | 5 | 9 | 90 | 0.02 | 0.03 | 0.0 | 7.8 |
| 08/25 04:00 | 65 | 24 | 1 | 5 | 9 | 92 | 0.01 | 0.01 | 0.0 | 8.4 |
| 08/25 03:00 | 65 | 24 | 4 | 7 | 11 | 92 | 0.00 | 0.00 | 0.0 | 8.8 |
| 08/25 02:00 | 65 | 27 | 3 | 6 | 12 | 96 | 0.00 | 0.00 | 0.0 | 6.8 |
| 08/25 01:00 | 64 | 30 | 3 | 6 | 10 | 92 | 0.00 | 0.00 | 0.0 | 6.6 |
| 08/25 00:00 | 62 | 36 | 0 | 2 | 8 | 65 | 0.00 | 0.00 | 0.1 | 6.2 |
| 08/24 23:00 | 63 | 38 | 0 | 0 | 0 | 38 | 0.00 | 0.00 | 0.1 | 4.6 |
| 08/24 22:00 | 63 | 37 | 0 | 0 | 1 | 21 | 0.00 | 0.00 | 0.0 | 6.0 |
| 08/24 21:00 | 64 | 37 | 0 | 0 | 0 | 82 | 0.00 | 0.00 | 0.0 | 5.9 |
| 08/24 20:00 | 64 | 37 | 0 | 0 | 2 | 97 | 0.00 | 0.00 | 0.0 | 4.1 |
| 08/24 19:00 | 66 | 36 | 0 | 3 | 7 | 111 | 0.00 | 0.00 | 0.0 | 1.4 |

